Time;durP1;ratioP1;P1;durP2;ratioP2;P2;SDS_P1;SDS_P2;PMS_P1;PMS_P2;Temp;Humidity;BMP_temperature;BMP_pressure;BME280_temperature;BME280_humidity;BME280_pressure;Samples;Min_cycle;Max_cycle;Signal;HPM_P1;HPM_P2
2024/03/08 00:00:12;;;;;;;;;;;;;;;;;;5066017;28;19928;-80
2024/03/08 00:02:39;;;;;;;;;;;;;;;;;;5058239;28;19989;-79
2024/03/08 00:05:06;;;;;;;;;;;;;;;;;;5068509;28;19932;-79
2024/03/08 00:07:33;;;;;;;;;;;;;;;;;;5061360;28;19929;-79
2024/03/08 00:10:00;;;;;;;;;;;;;;;;;;5064181;28;19950;-78
2024/03/08 00:12:27;;;;;;;;;;;;;;;;;;5069303;28;20369;-78
2024/03/08 00:14:55;;;;;;;;;;;;;;;;;;5069272;28;19983;-79
2024/03/08 00:17:22;;;;;;;;;;;;;;;;;;5065367;28;20379;-78
2024/03/08 00:19:50;;;;;;;;;;;;;;;;;;5069870;28;19928;-78
2024/03/08 00:22:17;;;;;;;;;;;;;;;;;;5063878;28;19932;-81
2024/03/08 00:24:45;;;;;;;;;;;;;;;;;;5052528;28;20342;-80
2024/03/08 00:27:12;;;;;;;;;;;;;;;;;;5068974;28;20182;-79
2024/03/08 00:29:39;;;;;;;;;;;;;;;;;;5069175;28;19932;-78
2024/03/08 00:32:07;;;;;;;;;;;;;;;;;;5055660;28;19932;-78
2024/03/08 00:34:34;;;;;;;;;;;;;;;;;;5060094;28;19936;-80
2024/03/08 00:37:01;;;;;;;;;;;;;;;;;;5069708;28;19929;-78
2024/03/08 00:39:28;;;;;;;;;;;;;;;;;;5064901;28;19929;-77
2024/03/08 00:41:55;;;;;;;;;;;;;;;;;;5068680;28;20012;-79
2024/03/08 00:44:23;;;;;;;;;;;;;;;;;;5063453;28;19932;-79
2024/03/08 00:46:50;;;;;;;;;;;;;;;;;;5075344;28;19929;-78
2024/03/08 00:49:18;;;;;;;;;;;;;;;;;;5074134;28;19928;-79
2024/03/08 00:51:45;;;;;;;;;;;;;;;;;;5063995;28;19932;-78
2024/03/08 00:54:12;;;;;;;;;;;;;;;;;;5073590;28;19971;-79
2024/03/08 00:56:39;;;;;;;;;;;;;;;;;;5073511;28;19988;-78
2024/03/08 00:59:06;;;;;;;;;;;;;;;;;;5069498;28;19997;-77
2024/03/08 01:01:33;;;;;;;;;;;;;;;;;;5075761;28;19983;-79
2024/03/08 01:04:00;;;;;;;;;;;;;;;;;;5065859;28;20475;-78
2024/03/08 01:06:27;;;;;;;;;;;;;;;;;;5071341;28;20323;-77
2024/03/08 01:08:54;;;;;;;;;;;;;;;;;;5075264;28;19967;-77
2024/03/08 01:11:21;;;;;;;;;;;;;;;;;;5075693;28;19924;-77
2024/03/08 01:13:49;;;;;;;;;;;;;;;;;;5070608;28;20364;-77
2024/03/08 01:16:16;;;;;;;;;;;;;;;;;;5075053;28;20015;-79
2024/03/08 01:18:43;;;;;;;;;;;;;;;;;;5074230;28;20272;-79
2024/03/08 01:21:10;;;;;;;;;;;;;;;;;;5074566;28;20358;-79
2024/03/08 01:23:37;;;;;;;;;;;;;;;;;;5059874;28;19982;-78
2024/03/08 01:26:05;;;;;;;;;;;;;;;;;;5066088;28;19941;-78
2024/03/08 01:28:34;;;;;;;;;;;;;;;;;;5074065;28;20019;-79
2024/03/08 01:31:01;;;;;;;;;;;;;;;;;;5067747;28;20410;-79
2024/03/08 01:33:28;;;;;;;;;;;;;;;;;;5063755;28;20015;-78
2024/03/08 01:35:55;;;;;;;;;;;;;;;;;;5076074;28;19936;-78
2024/03/08 01:38:22;;;;;;;;;;;;;;;;;;5075096;28;19929;-79
2024/03/08 01:40:49;;;;;;;;;;;;;;;;;;5058966;28;19977;-77
2024/03/08 01:43:16;;;;;;;;;;;;;;;;;;5064401;28;19982;-78
2024/03/08 01:45:43;;;;;;;;;;;;;;;;;;5056609;28;19936;-78
2024/03/08 01:48:10;;;;;;;;;;;;;;;;;;5071974;28;20003;-78
2024/03/08 01:50:38;;;;;;;;;;;;;;;;;;5071182;28;20447;-78
2024/03/08 01:53:06;;;;;;;;;;;;;;;;;;5074112;28;19928;-77
2024/03/08 01:55:33;;;;;;;;;;;;;;;;;;5065444;28;19932;-80
2024/03/08 01:58:00;;;;;;;;;;;;;;;;;;5057015;28;19939;-77
2024/03/08 02:00:29;;;;;;;;;;;;;;;;;;5060342;28;19968;-78
2024/03/08 02:02:56;;;;;;;;;;;;;;;;;;5058877;28;19939;-78
2024/03/08 02:05:24;;;;;;;;;;;;;;;;;;5065205;28;19939;-79
2024/03/08 02:07:51;;;;;;;;;;;;;;;;;;5071287;28;19952;-80
2024/03/08 02:10:19;;;;;;;;;;;;;;;;;;5058161;28;19928;-80
2024/03/08 02:12:46;;;;;;;;;;;;;;;;;;5065251;28;20346;-79
2024/03/08 02:15:13;;;;;;;;;;;;;;;;;;5068302;28;19931;-80
2024/03/08 02:17:42;;;;;;;;;;;;;;;;;;5058447;28;20459;-81
2024/03/08 02:20:10;;;;;;;;;;;;;;;;;;5056337;28;19936;-83
2024/03/08 02:22:37;;;;;;;;;;;;;;;;;;5062052;28;19978;-82
2024/03/08 02:25:05;;;;;;;;;;;;;;;;;;5071286;28;19928;-81
2024/03/08 02:27:32;;;;;;;;;;;;;;;;;;5070380;28;20313;-82
2024/03/08 02:30:00;;;;;;;;;;;;;;;;;;5066962;28;19974;-81
2024/03/08 02:32:27;;;;;;;;;;;;;;;;;;5057390;28;20422;-80
2024/03/08 02:34:54;;;;;;;;;;;;;;;;;;5066996;28;19932;-79
2024/03/08 02:37:21;;;;;;;;;;;;;;;;;;5070577;28;19971;-80
2024/03/08 02:39:48;;;;;;;;;;;;;;;;;;5068096;28;19928;-79
2024/03/08 02:42:15;;;;;;;;;;;;;;;;;;5059918;28;20731;-78
2024/03/08 02:44:43;;;;;;;;;;;;;;;;;;5065479;28;19932;-79
2024/03/08 02:47:10;;;;;;;;;;;;;;;;;;5071179;28;20333;-78
2024/03/08 02:49:38;;;;;;;;;;;;;;;;;;5064613;28;19932;-78
2024/03/08 02:52:05;;;;;;;;;;;;;;;;;;5068579;28;19928;-79
2024/03/08 02:54:32;;;;;;;;;;;;;;;;;;5067681;28;20017;-77
2024/03/08 02:56:59;;;;;;;;;;;;;;;;;;5060660;28;19935;-77
2024/03/08 02:59:26;;;;;;;;;;;;;;;;;;5069654;28;19928;-79
2024/03/08 03:01:53;;;;;;;;;;;;;;;;;;5065904;28;20047;-78
2024/03/08 03:04:20;;;;;;;;;;;;;;;;;;5067606;28;19955;-79
2024/03/08 03:06:47;;;;;;;;;;;;;;;;;;5071626;28;19933;-78
2024/03/08 03:09:16;;;;;;;;;;;;;;;;;;5069415;28;19934;-79
2024/03/08 03:11:43;;;;;;;;;;;;;;;;;;5066249;28;19964;-78
2024/03/08 03:14:11;;;;;;;;;;;;;;;;;;5070003;28;19933;-79
2024/03/08 03:16:38;;;;;;;;;;;;;;;;;;5071422;28;19936;-77
2024/03/08 03:19:05;;;;;;;;;;;;;;;;;;5072464;28;19935;-77
2024/03/08 03:21:32;;;;;;;;;;;;;;;;;;5063552;28;20378;-77
2024/03/08 03:24:04;;;;;;;;;;;;;;;;;;5064513;28;19935;-78
2024/03/08 03:26:32;;;;;;;;;;;;;;;;;;5064624;28;20352;-79
2024/03/08 03:29:00;;;;;;;;;;;;;;;;;;5070317;28;19934;-79
2024/03/08 03:31:27;;;;;;;;;;;;;;;;;;5067026;28;19983;-81
2024/03/08 03:33:54;;;;;;;;;;;;;;;;;;5066684;28;19982;-81
2024/03/08 03:36:21;;;;;;;;;;;;;;;;;;5057643;28;20360;-79
2024/03/08 03:38:49;;;;;;;;;;;;;;;;;;5068415;28;19976;-78
2024/03/08 03:41:16;;;;;;;;;;;;;;;;;;5069711;28;19975;-79
2024/03/08 03:43:43;;;;;;;;;;;;;;;;;;5066970;28;19991;-78
2024/03/08 03:46:10;;;;;;;;;;;;;;;;;;5065212;28;19932;-80
2024/03/08 03:48:37;;;;;;;;;;;;;;;;;;5069711;28;19932;-79
2024/03/08 03:51:05;;;;;;;;;;;;;;;;;;5068286;28;19967;-79
2024/03/08 03:53:32;;;;;;;;;;;;;;;;;;5064970;28;19971;-78
2024/03/08 03:55:59;;;;;;;;;;;;;;;;;;5066995;28;19929;-77
2024/03/08 03:58:27;;;;;;;;;;;;;;;;;;5075265;28;19934;-77
2024/03/08 04:00:54;;;;;;;;;;;;;;;;;;5061204;28;19939;-76
2024/03/08 04:03:21;;;;;;;;;;;;;;;;;;5064431;28;19974;-77
2024/03/08 04:05:48;;;;;;;;;;;;;;;;;;5064398;28;19928;-79
2024/03/08 04:08:16;;;;;;;;;;;;;;;;;;5065841;28;19928;-78
2024/03/08 04:10:44;;;;;;;;;;;;;;;;;;5067802;28;19934;-78
2024/03/08 04:13:11;;;;;;;;;;;;;;;;;;5060652;28;19940;-80
2024/03/08 04:15:38;;;;;;;;;;;;;;;;;;5066309;28;20387;-79
2024/03/08 04:18:05;;;;;;;;;;;;;;;;;;5069090;28;19929;-78
2024/03/08 04:20:32;;;;;;;;;;;;;;;;;;5061502;28;20318;-79
2024/03/08 04:22:59;;;;;;;;;;;;;;;;;;5061153;28;19935;-79
2024/03/08 04:25:26;;;;;;;;;;;;;;;;;;5063398;28;20433;-79
2024/03/08 04:27:53;;;;;;;;;;;;;;;;;;5068695;28;19928;-78
2024/03/08 04:30:21;;;;;;;;;;;;;;;;;;5062233;28;19938;-78
2024/03/08 04:32:48;;;;;;;;;;;;;;;;;;5060647;28;20384;-79
2024/03/08 04:35:15;;;;;;;;;;;;;;;;;;5063591;28;19928;-79
2024/03/08 04:37:43;;;;;;;;;;;;;;;;;;5068245;28;19974;-79
2024/03/08 04:40:10;;;;;;;;;;;;;;;;;;5069533;28;19929;-78
2024/03/08 04:42:37;;;;;;;;;;;;;;;;;;5069792;28;20264;-77
2024/03/08 04:45:04;;;;;;;;;;;;;;;;;;5062283;28;19928;-78
2024/03/08 04:47:31;;;;;;;;;;;;;;;;;;5054128;28;19929;-77
2024/03/08 04:49:59;;;;;;;;;;;;;;;;;;5068735;28;20374;-79
2024/03/08 04:52:28;;;;;;;;;;;;;;;;;;5066907;28;20006;-77
2024/03/08 04:54:55;;;;;;;;;;;;;;;;;;5068870;28;19968;-77
2024/03/08 04:57:22;;;;;;;;;;;;;;;;;;5069309;28;19955;-79
2024/03/08 04:59:49;;;;;;;;;;;;;;;;;;5068646;28;20371;-78
2024/03/08 05:02:17;;;;;;;;;;;;;;;;;;5066543;28;19935;-79
2024/03/08 05:04:44;;;;;;;;;;;;;;;;;;5069204;28;19947;-78
2024/03/08 05:07:11;;;;;;;;;;;;;;;;;;5066953;28;20446;-78
2024/03/08 05:09:40;;;;;;;;;;;;;;;;;;5069231;28;19994;-79
2024/03/08 05:12:07;;;;;;;;;;;;;;;;;;5065496;28;19979;-79
2024/03/08 05:14:34;;;;;;;;;;;;;;;;;;5069621;28;19935;-79
2024/03/08 05:17:02;;;;;;;;;;;;;;;;;;5062807;28;20006;-79
2024/03/08 05:19:30;;;;;;;;;;;;;;;;;;5068817;28;20006;-77
2024/03/08 05:21:57;;;;;;;;;;;;;;;;;;5060620;28;20358;-77
2024/03/08 05:24:24;;;;;;;;;;;;;;;;;;5067312;28;20528;-77
2024/03/08 05:26:51;;;;;;;;;;;;;;;;;;5068951;28;19971;-78
2024/03/08 05:29:19;;;;;;;;;;;;;;;;;;5063953;28;19934;-78
2024/03/08 05:31:46;;;;;;;;;;;;;;;;;;5068575;28;20009;-77
2024/03/08 05:34:14;;;;;;;;;;;;;;;;;;5063482;28;20401;-78
2024/03/08 05:36:44;;;;;;;;;;;;;;;;;;5061230;28;19964;-77
2024/03/08 05:39:11;;;;;;;;;;;;;;;;;;5071781;28;19935;-76
2024/03/08 05:41:38;;;;;;;;;;;;;;;;;;5059545;28;20315;-82
2024/03/08 05:44:05;;;;;;;;;;;;;;;;;;5067609;28;19924;-79
2024/03/08 05:46:33;;;;;;;;;;;;;;;;;;5071275;28;19928;-78
2024/03/08 05:49:00;;;;;;;;;;;;;;;;;;5065374;28;19981;-78
2024/03/08 05:51:27;;;;;;;;;;;;;;;;;;5062149;28;20441;-78
2024/03/08 05:53:55;;;;;;;;;;;;;;;;;;5063180;28;20380;-81
2024/03/08 05:56:24;;;;;;;;;;;;;;;;;;5065875;28;19970;-81
2024/03/08 05:58:51;;;;;;;;;;;;;;;;;;5071791;28;20391;-79
2024/03/08 06:01:18;;;;;;;;;;;;;;;;;;5071153;28;20002;-81
2024/03/08 06:03:45;;;;;;;;;;;;;;;;;;5060665;28;20002;-80
2024/03/08 06:06:12;;;;;;;;;;;;;;;;;;5066292;28;19964;-82
2024/03/08 06:08:39;;;;;;;;;;;;;;;;;;5065506;28;19974;-81
2024/03/08 06:11:06;;;;;;;;;;;;;;;;;;5070445;28;19925;-85
2024/03/08 06:13:33;;;;;;;;;;;;;;;;;;5070233;28;20446;-82
2024/03/08 06:16:04;;;;;;;;;;;;;;;;;;5065344;28;20453;-84
2024/03/08 06:18:31;;;;;;;;;;;;;;;;;;5063640;28;19970;-80
2024/03/08 06:20:58;;;;;;;;;;;;;;;;;;5063727;28;20446;-82
2024/03/08 06:23:27;;;;;;;;;;;;;;;;;;5064542;28;20311;-78
2024/03/08 06:25:54;;;;;;;;;;;;;;;;;;5066818;28;19935;-82
2024/03/08 06:28:21;;;;;;;;;;;;;;;;;;5066709;28;19933;-83
2024/03/08 06:30:48;;;;;;;;;;;;;;;;;;5063324;28;19935;-85
2024/03/08 06:33:16;;;;;;;;;;;;;;;;;;5072848;28;19975;-81
2024/03/08 06:35:43;;;;;;;;;;;;;;;;;;5063502;28;20322;-83
2024/03/08 06:38:11;;;;;;;;;;;;;;;;;;5064757;28;20019;-84
2024/03/08 06:40:38;;;;;;;;;;;;;;;;;;5064198;28;19933;-84
2024/03/08 06:43:06;;;;;;;;;;;;;;;;;;5073090;28;19935;-81
2024/03/08 06:45:33;;;;;;;;;;;;;;;;;;5071793;28;19935;-83
2024/03/08 06:48:00;;;;;;;;;;;;;;;;;;5061391;28;19975;-83
2024/03/08 06:50:27;;;;;;;;;;;;;;;;;;5070986;28;19982;-83
2024/03/08 06:52:54;;;;;;;;;;;;;;;;;;5064925;28;19936;-80
2024/03/08 06:55:21;;;;;;;;;;;;;;;;;;5065168;28;19933;-80
2024/03/08 06:57:48;;;;;;;;;;;;;;;;;;5061243;28;19929;-82
2024/03/08 07:00:18;;;;;;;;;;;;;;;;;;5058405;28;20311;-84
2024/03/08 07:02:46;;;;;;;;;;;;;;;;;;5057224;28;19963;-82
2024/03/08 07:05:13;;;;;;;;;;;;;;;;;;5066014;28;19932;-79
2024/03/08 07:07:41;;;;;;;;;;;;;;;;;;5064467;28;20019;-79
2024/03/08 07:10:10;;;;;;;;;;;;;;;;;;5054723;28;20302;-70
2024/03/08 07:12:37;;;;;;;;;;;;;;;;;;5059007;28;19937;-73
2024/03/08 07:15:05;;;;;;;;;;;;;;;;;;5058218;28;20373;-74
2024/03/08 07:17:35;;;;;;;;;;;;;;;;;;5067481;28;20004;-72
2024/03/08 07:20:10;;;;;;;;;;;;;;;;;;5065185;28;20295;-73
2024/03/08 07:22:38;;;;;;;;;;;;;;;;;;5060173;28;19935;-77
2024/03/08 07:25:19;;;;;;;;;;;;;;;;;;5062173;28;19935;-76
2024/03/08 07:27:46;;;;;;;;;;;;;;;;;;5053756;28;20435;-78
2024/03/08 07:30:51;;;;;;;;;;;;;;;;;;5059326;28;20018;-74
2024/03/08 07:33:02;;;;;;;;;;;;;;;;;;5066565;28;19929;-73
2024/03/08 07:35:29;;;;;;;;;;;;;;;;;;5069603;28;20399;-73
2024/03/08 07:37:56;;;;;;;;;;;;;;;;;;5063844;28;19968;-71
2024/03/08 07:40:23;;;;;;;;;;;;;;;;;;5065476;28;19940;-73
2024/03/08 07:42:50;;;;;;;;;;;;;;;;;;5057666;28;19935;-72
2024/03/08 07:45:17;;;;;;;;;;;;;;;;;;5059202;28;20019;-74
2024/03/08 07:47:44;;;;;;;;;;;;;;;;;;5056362;28;19982;-75
2024/03/08 07:50:15;;;;;;;;;;;;;;;;;;5054924;28;19932;-72
2024/03/08 07:52:42;;;;;;;;;;;;;;;;;;5066694;28;19936;-75
2024/03/08 07:55:09;;;;;;;;;;;;;;;;;;5069435;28;19929;-72
2024/03/08 07:57:38;;;;;;;;;;;;;;;;;;5069409;28;19929;-72
2024/03/08 08:00:07;;;;;;;;;;;;;;;;;;5066725;28;19936;-74
2024/03/08 08:02:35;;;;;;;;;;;;;;;;;;5062111;28;20580;-72
2024/03/08 08:05:02;;;;;;;;;;;;;;;;;;5068356;28;20387;-72
2024/03/08 08:07:30;;;;;;;;;;;;;;;;;;5067883;28;19928;-73
2024/03/08 08:09:58;;;;;;;;;;;;;;;;;;5056190;28;19936;-72
2024/03/08 08:12:25;;;;;;;;;;;;;;;;;;5062594;28;20366;-73
2024/03/08 08:14:52;;;;;;;;;;;;;;;;;;5061422;28;19929;-74
2024/03/08 08:17:20;;;;;;;;;;;;;;;;;;5065086;28;19967;-73
2024/03/08 08:19:47;;;;;;;;;;;;;;;;;;5065234;28;20020;-74
2024/03/08 08:22:14;;;;;;;;;;;;;;;;;;5066067;28;19928;-70
2024/03/08 08:24:41;;;;;;;;;;;;;;;;;;5067297;28;19974;-71
2024/03/08 08:27:09;;;;;;;;;;;;;;;;;;5056794;28;20005;-72
2024/03/08 08:29:36;;;;;;;;;;;;;;;;;;5065503;28;19935;-74
2024/03/08 08:32:03;;;;;;;;;;;;;;;;;;5066665;28;20011;-73
2024/03/08 08:34:31;;;;;;;;;;;;;;;;;;5057250;28;20026;-72
2024/03/08 08:36:58;;;;;;;;;;;;;;;;;;5055250;28;19928;-73
2024/03/08 08:39:25;;;;;;;;;;;;;;;;;;5052328;28;19951;-73
2024/03/08 08:41:52;;;;;;;;;;;;;;;;;;5066923;28;20323;-74
2024/03/08 08:44:20;;;;;;;;;;;;;;;;;;5064545;28;20051;-73
2024/03/08 08:46:47;;;;;;;;;;;;;;;;;;5067597;28;19935;-74
2024/03/08 08:49:15;;;;;;;;;;;;;;;;;;5067408;28;19979;-75
2024/03/08 08:51:43;;;;;;;;;;;;;;;;;;5054159;28;19935;-74
2024/03/08 08:54:11;;;;;;;;;;;;;;;;;;5061189;28;19968;-75
2024/03/08 08:56:38;;;;;;;;;;;;;;;;;;5060286;28;19933;-73
2024/03/08 08:59:05;;;;;;;;;;;;;;;;;;5057524;28;19935;-73
2024/03/08 09:01:32;;;;;;;;;;;;;;;;;;5057423;28;19997;-71
2024/03/08 09:03:59;;;;;;;;;;;;;;;;;;5056076;28;20410;-72
2024/03/08 09:06:27;;;;;;;;;;;;;;;;;;5068002;28;20064;-73
2024/03/08 09:08:54;;;;;;;;;;;;;;;;;;5063356;28;19971;-71
2024/03/08 09:11:21;;;;;;;;;;;;;;;;;;5066759;28;20006;-75
2024/03/08 09:13:48;;;;;;;;;;;;;;;;;;5067224;28;19935;-72
2024/03/08 09:16:17;;;;;;;;;;;;;;;;;;5064721;28;21604;-74
2024/03/08 09:18:45;;;;;;;;;;;;;;;;;;5065293;28;20011;-73
2024/03/08 09:21:13;;;;;;;;;;;;;;;;;;5070310;28;19929;-67
2024/03/08 09:23:41;;;;;;;;;;;;;;;;;;5067577;28;20022;-68
2024/03/08 09:26:09;;;;;;;;;;;;;;;;;;5064042;28;19928;-67
2024/03/08 09:28:36;;;;;;;;;;;;;;;;;;5069966;28;19933;-69
2024/03/08 09:31:03;;;;;;;;;;;;;;;;;;5065605;28;19929;-68
2024/03/08 09:33:30;;;;;;;;;;;;;;;;;;5066829;28;20389;-74
2024/03/08 09:35:58;;;;;;;;;;;;;;;;;;5063065;28;19935;-74
2024/03/08 09:38:25;;;;;;;;;;;;;;;;;;5064971;28;19972;-76
2024/03/08 09:40:53;;;;;;;;;;;;;;;;;;5064976;28;20023;-73
2024/03/08 09:43:20;;;;;;;;;;;;;;;;;;5065541;28;19929;-72
2024/03/08 09:45:49;;;;;;;;;;;;;;;;;;5068032;28;20356;-73
2024/03/08 09:48:16;;;;;;;;;;;;;;;;;;5061428;28;19928;-72
2024/03/08 09:50:43;;;;;;;;;;;;;;;;;;5058981;28;20816;-73
2024/03/08 09:53:11;;;;;;;;;;;;;;;;;;5058867;28;20291;-73
2024/03/08 09:55:42;;;;;;;;;;;;;;;;;;5062956;28;19963;-73
2024/03/08 09:58:36;;;;;;;;;;;;;;;;;;5060711;28;19932;-73
2024/03/08 10:01:04;;;;;;;;;;;;;;;;;;5064166;28;19982;-73
2024/03/08 10:03:32;;;;;;;;;;;;;;;;;;5058233;28;19974;-72
2024/03/08 10:06:00;;;;;;;;;;;;;;;;;;5061568;28;19932;-74
2024/03/08 10:08:28;;;;;;;;;;;;;;;;;;5060997;28;19939;-70
2024/03/08 10:10:55;;;;;;;;;;;;;;;;;;5065713;28;19963;-73
2024/03/08 10:13:22;;;;;;;;;;;;;;;;;;5065709;28;20330;-72
2024/03/08 10:15:49;;;;;;;;;;;;;;;;;;5053784;28;19960;-73
2024/03/08 10:18:17;;;;;;;;;;;;;;;;;;5059031;28;19928;-74
2024/03/08 10:20:44;;;;;;;;;;;;;;;;;;5058148;28;19932;-72
2024/03/08 10:23:11;;;;;;;;;;;;;;;;;;5064489;28;19975;-72
2024/03/08 10:25:38;;;;;;;;;;;;;;;;;;5066280;28;19935;-73
2024/03/08 10:28:06;;;;;;;;;;;;;;;;;;5062295;28;20030;-73
2024/03/08 10:30:33;;;;;;;;;;;;;;;;;;5068884;28;19928;-73
2024/03/08 10:33:05;;;;;;;;;;;;;;;;;;5063817;28;19936;-73
2024/03/08 10:35:32;;;;;;;;;;;;;;;;;;5060763;28;19935;-73
2024/03/08 10:37:59;;;;;;;;;;;;;;;;;;5062744;28;19975;-74
2024/03/08 10:40:26;;;;;;;;;;;;;;;;;;5062962;28;19936;-72
2024/03/08 10:42:54;;;;;;;;;;;;;;;;;;5056944;28;19929;-74
2024/03/08 10:45:22;;;;;;;;;;;;;;;;;;5068662;28;19943;-73
2024/03/08 10:47:49;;;;;;;;;;;;;;;;;;5067328;28;20310;-73
2024/03/08 10:50:18;;;;;;;;;;;;;;;;;;5059573;28;20441;-71
2024/03/08 10:52:45;;;;;;;;;;;;;;;;;;5063522;28;19928;-73
2024/03/08 10:55:13;;;;;;;;;;;;;;;;;;5063650;28;19934;-72
2024/03/08 10:57:40;;;;;;;;;;;;;;;;;;5066657;28;19938;-72
2024/03/08 11:00:12;;;;;;;;;;;;;;;;;;5052962;28;20025;-75
2024/03/08 11:02:39;;;;;;;;;;;;;;;;;;5061541;28;20380;-74
2024/03/08 11:05:06;;;;;;;;;;;;;;;;;;5063007;28;19932;-77
2024/03/08 11:07:34;;;;;;;;;;;;;;;;;;5064769;28;20373;-75
2024/03/08 11:10:01;;;;;;;;;;;;;;;;;;5065086;28;19929;-74
2024/03/08 11:12:32;;;;;;;;;;;;;;;;;;5064433;28;19939;-75
2024/03/08 11:14:59;;;;;;;;;;;;;;;;;;5063665;28;19936;-74
2024/03/08 11:17:27;;;;;;;;;;;;;;;;;;5066619;28;20141;-75
2024/03/08 11:19:56;;;;;;;;;;;;;;;;;;5063103;28;20027;-74
2024/03/08 11:22:24;;;;;;;;;;;;;;;;;;5065395;28;19928;-75
2024/03/08 11:24:51;;;;;;;;;;;;;;;;;;5057882;28;19960;-75
2024/03/08 11:27:20;;;;;;;;;;;;;;;;;;5056377;28;19928;-76
2024/03/08 11:29:47;;;;;;;;;;;;;;;;;;5059901;28;20371;-75
2024/03/08 11:32:14;;;;;;;;;;;;;;;;;;5064866;28;19936;-74
2024/03/08 11:34:43;;;;;;;;;;;;;;;;;;5065855;28;19986;-75
2024/03/08 11:37:12;;;;;;;;;;;;;;;;;;5057490;28;19936;-75
2024/03/08 11:39:39;;;;;;;;;;;;;;;;;;5068853;28;19963;-76
2024/03/08 11:42:06;;;;;;;;;;;;;;;;;;5062075;28;19928;-76
2024/03/08 11:44:33;;;;;;;;;;;;;;;;;;5065542;28;20311;-75
2024/03/08 11:47:00;;;;;;;;;;;;;;;;;;5064284;28;19993;-75
2024/03/08 11:49:28;;;;;;;;;;;;;;;;;;5062193;28;21202;-77
2024/03/08 11:51:56;;;;;;;;;;;;;;;;;;5056500;28;19928;-77
2024/03/08 11:54:23;;;;;;;;;;;;;;;;;;5057527;28;19932;-76
2024/03/08 11:56:50;;;;;;;;;;;;;;;;;;5060328;28;19932;-76
2024/03/08 11:59:17;;;;;;;;;;;;;;;;;;5055336;28;20013;-77
2024/03/08 12:01:45;;;;;;;;;;;;;;;;;;5061167;28;19929;-77
2024/03/08 12:04:12;;;;;;;;;;;;;;;;;;5056473;28;20019;-77
2024/03/08 12:06:40;;;;;;;;;;;;;;;;;;5060074;28;19951;-74
2024/03/08 12:09:07;;;;;;;;;;;;;;;;;;5054078;28;19951;-75
2024/03/08 12:11:36;;;;;;;;;;;;;;;;;;5058344;28;20003;-76
2024/03/08 12:14:03;;;;;;;;;;;;;;;;;;5057597;28;19976;-75
2024/03/08 12:16:30;;;;;;;;;;;;;;;;;;5054835;28;20315;-76
2024/03/08 12:18:57;;;;;;;;;;;;;;;;;;5064876;28;19974;-75
2024/03/08 12:21:25;;;;;;;;;;;;;;;;;;5066584;28;19932;-76
2024/03/08 12:23:52;;;;;;;;;;;;;;;;;;5055153;28;19975;-75
2024/03/08 12:26:19;;;;;;;;;;;;;;;;;;5059589;28;19998;-75
2024/03/08 12:28:47;;;;;;;;;;;;;;;;;;5061587;28;19928;-75
2024/03/08 12:31:16;;;;;;;;;;;;;;;;;;5062532;28;20353;-76
2024/03/08 12:33:43;;;;;;;;;;;;;;;;;;5058541;28;19928;-76
2024/03/08 12:36:12;;;;;;;;;;;;;;;;;;5064457;28;20331;-74
2024/03/08 12:38:39;;;;;;;;;;;;;;;;;;5054655;28;20423;-73
2024/03/08 12:41:07;;;;;;;;;;;;;;;;;;5058973;28;19925;-75
2024/03/08 12:43:34;;;;;;;;;;;;;;;;;;5065213;28;19928;-72
2024/03/08 12:46:01;;;;;;;;;;;;;;;;;;5069482;28;19960;-73
2024/03/08 12:48:29;;;;;;;;;;;;;;;;;;5056623;28;19928;-73
2024/03/08 12:50:56;;;;;;;;;;;;;;;;;;5060748;28;19932;-74
2024/03/08 12:53:25;;;;;;;;;;;;;;;;;;5065236;28;19929;-72
2024/03/08 12:55:52;;;;;;;;;;;;;;;;;;5059195;28;19994;-72
2024/03/08 12:58:20;;;;;;;;;;;;;;;;;;5068369;28;19929;-72
2024/03/08 13:00:47;;;;;;;;;;;;;;;;;;5057498;28;20018;-71
2024/03/08 13:03:14;;;;;;;;;;;;;;;;;;5053877;28;19974;-74
2024/03/08 13:05:42;;;;;;;;;;;;;;;;;;5058423;28;19997;-73
2024/03/08 13:08:12;;;;;;;;;;;;;;;;;;5058747;28;20035;-72
2024/03/08 13:10:39;;;;;;;;;;;;;;;;;;5063124;28;19933;-71
2024/03/08 13:13:06;;;;;;;;;;;;;;;;;;5057296;28;19928;-72
2024/03/08 13:15:33;;;;;;;;;;;;;;;;;;5053691;28;19958;-73
2024/03/08 13:18:00;;;;;;;;;;;;;;;;;;5058178;28;19929;-73
2024/03/08 13:20:28;;;;;;;;;;;;;;;;;;5059351;28;19984;-71
2024/03/08 13:22:55;;;;;;;;;;;;;;;;;;5057804;28;20020;-73
2024/03/08 13:25:23;;;;;;;;;;;;;;;;;;5058284;28;20351;-73
2024/03/08 13:27:50;;;;;;;;;;;;;;;;;;5056010;28;19928;-72
2024/03/08 13:30:18;;;;;;;;;;;;;;;;;;5057533;28;19928;-72
2024/03/08 13:32:45;;;;;;;;;;;;;;;;;;5057693;28;19934;-73
2024/03/08 13:35:13;;;;;;;;;;;;;;;;;;5054567;28;19968;-70
2024/03/08 13:37:40;;;;;;;;;;;;;;;;;;5055730;28;19960;-71
2024/03/08 13:40:10;;;;;;;;;;;;;;;;;;5056379;28;19955;-70
2024/03/08 13:42:38;;;;;;;;;;;;;;;;;;5051575;28;19929;-70
2024/03/08 13:45:06;;;;;;;;;;;;;;;;;;5049855;28;19974;-71
2024/03/08 13:47:34;;;;;;;;;;;;;;;;;;5053376;28;20380;-71
2024/03/08 13:50:01;;;;;;;;;;;;;;;;;;5054916;28;19935;-70
2024/03/08 13:52:29;;;;;;;;;;;;;;;;;;5056412;28;20019;-70
2024/03/08 13:54:56;;;;;;;;;;;;;;;;;;5058855;28;19929;-70
2024/03/08 13:57:23;;;;;;;;;;;;;;;;;;5058356;28;20040;-70
2024/03/08 13:59:51;;;;;;;;;;;;;;;;;;5058102;28;19935;-70
2024/03/08 14:02:18;;;;;;;;;;;;;;;;;;5056449;28;19929;-71
2024/03/08 14:04:45;;;;;;;;;;;;;;;;;;5059970;28;20350;-69
2024/03/08 14:07:12;;;;;;;;;;;;;;;;;;5057562;28;20586;-70
2024/03/08 14:09:42;;;;;;;;;;;;;;;;;;5057562;28;20030;-69
2024/03/08 14:12:10;;;;;;;;;;;;;;;;;;5061564;28;19928;-69
2024/03/08 14:14:37;;;;;;;;;;;;;;;;;;5061220;28;19929;-71
2024/03/08 14:17:04;;;;;;;;;;;;;;;;;;5060554;28;20391;-71
2024/03/08 14:19:31;;;;;;;;;;;;;;;;;;5060864;28;20877;-71
2024/03/08 14:21:59;;;;;;;;;;;;;;;;;;5056645;28;19975;-69
2024/03/08 14:24:26;;;;;;;;;;;;;;;;;;5059113;28;19955;-71
2024/03/08 14:26:53;;;;;;;;;;;;;;;;;;5054079;28;19932;-71
2024/03/08 14:29:20;;;;;;;;;;;;;;;;;;5062148;28;20387;-74
2024/03/08 14:31:47;;;;;;;;;;;;;;;;;;5059089;28;20068;-73
2024/03/08 14:34:15;;;;;;;;;;;;;;;;;;5055330;28;19935;-73
2024/03/08 14:36:42;;;;;;;;;;;;;;;;;;5055560;28;21295;-72
2024/03/08 14:39:09;;;;;;;;;;;;;;;;;;5062177;28;19929;-72
2024/03/08 14:41:36;;;;;;;;;;;;;;;;;;5055069;28;20041;-72
2024/03/08 14:44:03;;;;;;;;;;;;;;;;;;5063433;28;20375;-72
2024/03/08 14:46:30;;;;;;;;;;;;;;;;;;5057781;28;19932;-73
2024/03/08 14:48:57;;;;;;;;;;;;;;;;;;5058340;28;19928;-72
2024/03/08 14:51:26;;;;;;;;;;;;;;;;;;5059470;28;19965;-73
2024/03/08 14:53:54;;;;;;;;;;;;;;;;;;5057924;28;20366;-73
2024/03/08 14:56:22;;;;;;;;;;;;;;;;;;5065270;28;19932;-73
2024/03/08 14:58:51;;;;;;;;;;;;;;;;;;5058126;28;19943;-73
2024/03/08 15:01:22;;;;;;;;;;;;;;;;;;5061125;28;20345;-73
2024/03/08 15:03:49;;;;;;;;;;;;;;;;;;5056120;28;19929;-73
2024/03/08 15:06:19;;;;;;;;;;;;;;;;;;5053857;28;19978;-72
2024/03/08 15:08:47;;;;;;;;;;;;;;;;;;5057047;28;20079;-71
2024/03/08 15:11:20;;;;;;;;;;;;;;;;;;5058697;28;19932;-72
2024/03/08 15:13:51;;;;;;;;;;;;;;;;;;5061686;28;20399;-73
2024/03/08 15:16:18;;;;;;;;;;;;;;;;;;5059251;28;20311;-74
2024/03/08 15:18:47;;;;;;;;;;;;;;;;;;5063695;28;19974;-72
2024/03/08 15:21:17;;;;;;;;;;;;;;;;;;5065888;28;20369;-74
2024/03/08 15:23:49;;;;;;;;;;;;;;;;;;5063835;28;20066;-73
2024/03/08 15:26:16;;;;;;;;;;;;;;;;;;5059867;28;19928;-75
2024/03/08 15:28:44;;;;;;;;;;;;;;;;;;5065722;28;19932;-72
2024/03/08 15:31:12;;;;;;;;;;;;;;;;;;5059964;28;20054;-71
2024/03/08 15:33:44;;;;;;;;;;;;;;;;;;5058129;28;19943;-72
2024/03/08 15:36:14;;;;;;;;;;;;;;;;;;5061199;28;19994;-73
2024/03/08 15:38:41;;;;;;;;;;;;;;;;;;5062569;28;19935;-73
2024/03/08 15:41:10;;;;;;;;;;;;;;;;;;5061217;28;19932;-73
2024/03/08 15:43:37;;;;;;;;;;;;;;;;;;5064890;28;19932;-72
2024/03/08 15:46:05;;;;;;;;;;;;;;;;;;5066500;28;19939;-73
2024/03/08 15:48:32;;;;;;;;;;;;;;;;;;5064341;28;20028;-73
2024/03/08 15:51:01;;;;;;;;;;;;;;;;;;5062486;28;19932;-72
2024/03/08 15:53:30;;;;;;;;;;;;;;;;;;5062351;28;19929;-72
2024/03/08 15:55:57;;;;;;;;;;;;;;;;;;5057881;28;19936;-71
2024/03/08 15:58:24;;;;;;;;;;;;;;;;;;5062546;28;19968;-72
2024/03/08 16:00:52;;;;;;;;;;;;;;;;;;5063504;28;19929;-74
2024/03/08 16:03:20;;;;;;;;;;;;;;;;;;5058293;28;19932;-74
2024/03/08 16:05:48;;;;;;;;;;;;;;;;;;5063299;28;20331;-73
2024/03/08 16:08:16;;;;;;;;;;;;;;;;;;5065450;28;19929;-72
2024/03/08 16:10:45;;;;;;;;;;;;;;;;;;5061264;28;19932;-74
2024/03/08 16:13:12;;;;;;;;;;;;;;;;;;5059178;28;20037;-72
2024/03/08 16:15:40;;;;;;;;;;;;;;;;;;5065630;28;19935;-73
2024/03/08 16:18:08;;;;;;;;;;;;;;;;;;5065211;28;19929;-73
2024/03/08 16:20:35;;;;;;;;;;;;;;;;;;5061693;28;19933;-73
2024/03/08 16:23:03;;;;;;;;;;;;;;;;;;5059604;28;20387;-73
2024/03/08 16:25:31;;;;;;;;;;;;;;;;;;5053174;28;19929;-72
2024/03/08 16:27:58;;;;;;;;;;;;;;;;;;5056442;28;20775;-73
2024/03/08 16:30:26;;;;;;;;;;;;;;;;;;5061637;28;19986;-74
2024/03/08 16:32:53;;;;;;;;;;;;;;;;;;5061536;28;19937;-74
2024/03/08 16:35:21;;;;;;;;;;;;;;;;;;5056448;28;19935;-73
2024/03/08 16:37:50;;;;;;;;;;;;;;;;;;5055852;28;19947;-74
2024/03/08 16:40:19;;;;;;;;;;;;;;;;;;5065296;28;19929;-74
2024/03/08 16:42:50;;;;;;;;;;;;;;;;;;5062978;28;19928;-73
2024/03/08 16:45:18;;;;;;;;;;;;;;;;;;5056955;28;19928;-73
2024/03/08 16:47:45;;;;;;;;;;;;;;;;;;5067610;28;20046;-73